Van Kinsbergen — PAKB — position and weather

sailwx.info

Track history (hours):
 
Tides and Currents Weather Stations Pressure Air Temp Water Temp Dewpoint Dewpoint Depression Visibility Wind Speed Wind Dir Waves Ship Positions

Van Kinsbergen

Last reported at 2016-Dec-05 10:30 UTC. Time now 2016-Dec-10 16:41 UTC.
Position N 52°58' E 004°47'.

Length 40 m; draft 3.1 m.

MMSI: 244736000.

Date/timePositionNaut miles runAvg speedWind from/ knotsBaromVisibWave heightAir tempDewpointWater temp
2016-Dec-05 10:30N 52°58' E 004°47'0 0.0
2016-Dec-05 09:33N 52°58' E 004°47'0 0.0
2016-Dec-05 08:33N 52°58' E 004°47'0 0.0
2016-Dec-05 07:33N 52°58' E 004°47'0 0.0
2016-Dec-05 06:27N 52°58' E 004°47'0 0.0
2016-Dec-05 05:33N 52°58' E 004°47'0 0.0
2016-Dec-05 04:33N 52°58' E 004°47'0 0.0
2016-Dec-05 03:33N 52°58' E 004°47'0 0.0
2016-Dec-05 02:33N 52°58' E 004°47'0 0.0
2016-Dec-05 01:30N 52°58' E 004°47'0 0.0
2016-Dec-05 00:30N 52°58' E 004°47'0 0.0
2016-Dec-04 23:30N 52°58' E 004°47'0 0.0
2016-Dec-04 22:30N 52°58' E 004°47'0 0.0
2016-Dec-04 21:33N 52°58' E 004°47'0 0.0
2016-Dec-04 20:33N 52°58' E 004°47'0 0.0
2016-Dec-04 19:33N 52°58' E 004°47'0 0.0
2016-Dec-04 18:33N 52°58' E 004°47'0 0.0
2016-Dec-04 17:33N 52°58' E 004°47'0 0.0
2016-Dec-04 16:33N 52°58' E 004°47'0 0.0
2016-Dec-04 15:33N 52°58' E 004°47'0 0.0
2016-Dec-04 14:33N 52°58' E 004°47'0 0.0
2016-Dec-04 13:33N 52°58' E 004°47'0 0.0
2016-Dec-04 12:30N 52°58' E 004°47'0 0.0
2016-Dec-04 11:33N 52°58' E 004°47'0 0.0
2016-Dec-04 10:30N 52°58' E 004°47'0 0.0
2016-Dec-04 09:30N 52°58' E 004°47'0 0.0
2016-Dec-04 08:33N 52°58' E 004°47'0 0.0
2016-Dec-04 07:33N 52°58' E 004°47'1 1.3
2016-Dec-04 06:33N 52°59' E 004°47'1110.9
2016-Dec-04 05:33N 52°52' E 004°33'1111.4
2016-Dec-04 04:33N 52°46' E 004°17'10 8.9
2016-Dec-04 03:28N 52°45' E 004°01'29 9.6
2016-Dec-04 00:27N 53°11' E 004°25'53 8.4
2016-Dec-03 18:13N 53°42' E 005°36'710.3
2016-Dec-03 17:32N 53°44' E 005°47'6110.2
2016-Dec-03 11:30N 53°60' E 007°28'9 9.0
2016-Dec-03 10:33N 54°02' E 007°42'9 8.9
2016-Dec-03 09:33N 54°02' E 007°57'9 9.1
2016-Dec-03 08:33N 54°01' E 008°13'9 9.4
2016-Dec-03 07:33N 53°59' E 008°28'1111.0
2016-Dec-03 06:33N 53°53' E 008°43'1110.8
2016-Dec-03 05:33N 53°52' E 009°02'5 4.6
2016-Dec-03 04:33N 53°54' E 009°09'5 4.8
2016-Dec-03 03:34N 53°57' E 009°14'8 8.1
2016-Dec-03 02:33N 54°05' E 009°19'28 7.1
2016-Dec-02 22:32N 54°21' E 009°59'5 5.0
2016-Dec-02 21:33N 54°22' E 010°08'3 3.1
2016-Dec-02 20:33N 54°24' E 010°12'9 9.3
2016-Dec-02 19:33N 54°33' E 010°14'29 0.9
2016-Dec-01 10:21N 55°02' E 010°19'8 9.6
2016-Dec-01 09:33N 55°02' E 010°32'3 0.7
2016-Dec-01 05:14N 55°04' E 010°37'0 0.0
2016-Dec-01 01:08N 55°04' E 010°37'0 0.0
2016-Dec-01 00:32N 55°04' E 010°37'0 0.0
2016-Nov-30 19:29N 55°04' E 010°37'0 0.0
2016-Nov-30 14:20N 55°04' E 010°37'0 0.0
2016-Nov-30 13:11N 55°04' E 010°37'0 0.0
2016-Nov-30 11:23N 55°04' E 010°37'0 0.0
2016-Nov-30 09:29N 55°04' E 010°37'3 2.7
2016-Nov-30 08:33N 55°02' E 010°33'25 2.1
2016-Nov-29 20:31N 55°14' E 011°12'1 1.2
2016-Nov-29 19:24N 55°15' E 011°12'1 1.7
2016-Nov-29 18:33N 55°17' E 011°11'4 4.3
2016-Nov-29 17:33N 55°12' E 011°14'4 3.7
2016-Nov-29 16:25N 55°16' E 011°12'4 4.3
2016-Nov-29 15:30N 55°13' E 011°14'4 4.1
2016-Nov-29 14:31N 55°17' E 011°12'4 4.3
2016-Nov-29 13:32N 55°13' E 011°14'9 8.7
2016-Nov-29 12:30N 55°19' E 011°02'63 7.9
2016-Nov-29 04:30N 56°11' E 012°04'1010.2
2016-Nov-29 03:34N 56°12' E 012°21'1010.0
2016-Nov-29 02:33N 56°06' E 012°35'1010.2
2016-Nov-29 01:33N 55°57' E 012°43'1110.9
2016-Nov-29 00:33N 55°46' E 012°42'10 9.9
2016-Nov-28 23:33N 55°36' E 012°42'9 9.4
2016-Nov-28 22:33N 55°26' E 012°42'1010.1
2016-Nov-28 21:33N 55°16' E 012°40'1110.9
2016-Nov-28 20:32N 55°05' E 012°41'1111.3
2016-Nov-28 19:31N 54°54' E 012°43'1310.1
2016-Nov-28 18:16N 54°42' E 012°36'811.8
2016-Nov-28 17:33N 54°37' E 012°24'1611.1
2016-Nov-28 16:09N 54°24' E 012°09'712.3
2016-Nov-28 15:33N 54°24' E 011°56'1211.7
2016-Nov-28 14:33N 54°27' E 011°37'1211.9
2016-Nov-28 13:33N 54°32' E 011°19'1110.7
2016-Nov-28 12:34N 54°35' E 011°01'1211.9
2016-Nov-28 11:33N 54°33' E 010°40'19 9.5
2016-Nov-28 09:33N 54°23' E 010°12'3 2.6
2016-Nov-28 08:32N 54°22' E 010°09'0 0.0
2016-Nov-28 07:32N 54°22' E 010°09'0 0.0
2016-Nov-28 06:32N 54°22' E 010°09'0 0.0
2016-Nov-28 05:32N 54°22' E 010°09'0 0.0
2016-Nov-28 04:32N 54°22' E 010°09'0 0.0
2016-Nov-28 03:32N 54°22' E 010°09'0 0.0
2016-Nov-28 02:32N 54°22' E 010°09'0 0.0
2016-Nov-28 01:32N 54°22' E 010°09'0 0.0
2016-Nov-28 00:32N 54°22' E 010°09'0 0.0
2016-Nov-27 23:32N 54°22' E 010°09'0 0.0
2016-Nov-27 22:32N 54°22' E 010°09'0 0.0
2016-Nov-27 21:32N 54°22' E 010°09'0 0.0
2016-Nov-27 20:32N 54°22' E 010°09'0 0.0
2016-Nov-27 19:32N 54°22' E 010°09'0 0.0
2016-Nov-27 18:32N 54°22' E 010°09'0 0.0
2016-Nov-27 17:32N 54°22' E 010°09'0 0.0
2016-Nov-27 16:32N 54°22' E 010°09'0 0.0
2016-Nov-27 15:32N 54°22' E 010°09'0 0.0
2016-Nov-27 14:32N 54°22' E 010°09'0 0.0
2016-Nov-27 13:32N 54°22' E 010°09'0 0.0
2016-Nov-27 12:32N 54°22' E 010°09'0 0.0
2016-Nov-27 11:32N 54°22' E 010°09'0 0.0
2016-Nov-27 10:32N 54°22' E 010°09'0 0.0
2016-Nov-27 09:32N 54°22' E 010°09'0 0.0
2016-Nov-27 08:32N 54°22' E 010°09'0 0.1
2016-Nov-27 07:32N 54°22' E 010°09'0 0.0
2016-Nov-27 06:32N 54°22' E 010°09'0 0.0
2016-Nov-27 05:32N 54°22' E 010°09'0 0.0
2016-Nov-27 04:32N 54°22' E 010°09'0 0.0
2016-Nov-27 03:32N 54°22' E 010°09'0 0.0
2016-Nov-27 02:32N 54°22' E 010°09'0 0.0
2016-Nov-27 01:32N 54°22' E 010°09'0 0.0
2016-Nov-27 00:32N 54°22' E 010°09'0 0.0
2016-Nov-26 23:32N 54°22' E 010°09'0 0.0
2016-Nov-26 22:32N 54°22' E 010°09'0 0.0
2016-Nov-26 21:32N 54°22' E 010°09'0 0.0
2016-Nov-26 20:32N 54°22' E 010°09'0 0.0
2016-Nov-26 19:32N 54°22' E 010°09'2 2.3
2016-Nov-26 18:33N 54°23' E 010°12'10 9.9
2016-Nov-26 17:33N 54°33' E 010°15'14 9.5
2016-Nov-26 16:05N 54°47' E 010°09'611.9
2016-Nov-26 15:33N 54°53' E 010°08'15 7.3
2016-Nov-26 13:27N 55°01' E 010°30'0 0.2
2016-Nov-26 12:06N 55°01' E 010°30'3 1.0
2016-Nov-26 09:33N 55°02' E 010°34'3 3.4
2016-Nov-26 08:33N 55°02' E 010°40'3 2.6
2016-Nov-26 07:33N 55°03' E 010°36'6 5.9
2016-Nov-26 06:34N 55°02' E 010°46'7 6.8
2016-Nov-26 05:32N 55°09' E 010°51'9 8.9
2016-Nov-26 04:33N 55°17' E 010°55'30 2.4
2016-Nov-25 16:09N 55°01' E 010°11'4 4.8
2016-Nov-25 15:23N 55°04' E 010°07'3 1.8
2016-Nov-25 13:25N 55°03' E 010°13'4 2.3
2016-Nov-25 11:26N 54°59' E 010°10'  
Track history (hours):
 
Tides and Currents Weather Stations Pressure Air Temp Water Temp Dewpoint Dewpoint Depression Visibility Wind Speed Wind Dir Waves Ship Positions

Van Kinsbergen

Last reported at 2016-Dec-05 10:30 UTC. Time now 2016-Dec-10 16:41 UTC.
Position N 52°58' E 004°47'.

Length 40 m; draft 3.1 m.

MMSI: 244736000.

Date/timePositionNaut miles runAvg speedWind from/ knotsBaromVisibWave heightAir tempDewpointWater temp
2016-Dec-05 10:30N 52°58' E 004°47'0 0.0
2016-Dec-05 09:33N 52°58' E 004°47'0 0.0
2016-Dec-05 08:33N 52°58' E 004°47'0 0.0
2016-Dec-05 07:33N 52°58' E 004°47'0 0.0
2016-Dec-05 06:27N 52°58' E 004°47'0 0.0
2016-Dec-05 05:33N 52°58' E 004°47'0 0.0
2016-Dec-05 04:33N 52°58' E 004°47'0 0.0
2016-Dec-05 03:33N 52°58' E 004°47'0 0.0
2016-Dec-05 02:33N 52°58' E 004°47'0 0.0
2016-Dec-05 01:30N 52°58' E 004°47'0 0.0
2016-Dec-05 00:30N 52°58' E 004°47'0 0.0
2016-Dec-04 23:30N 52°58' E 004°47'0 0.0
2016-Dec-04 22:30N 52°58' E 004°47'0 0.0
2016-Dec-04 21:33N 52°58' E 004°47'0 0.0
2016-Dec-04 20:33N 52°58' E 004°47'0 0.0
2016-Dec-04 19:33N 52°58' E 004°47'0 0.0
2016-Dec-04 18:33N 52°58' E 004°47'0 0.0
2016-Dec-04 17:33N 52°58' E 004°47'0 0.0
2016-Dec-04 16:33N 52°58' E 004°47'0 0.0
2016-Dec-04 15:33N 52°58' E 004°47'0 0.0
2016-Dec-04 14:33N 52°58' E 004°47'0 0.0
2016-Dec-04 13:33N 52°58' E 004°47'0 0.0
2016-Dec-04 12:30N 52°58' E 004°47'0 0.0
2016-Dec-04 11:33N 52°58' E 004°47'0 0.0
2016-Dec-04 10:30N 52°58' E 004°47'0 0.0
2016-Dec-04 09:30N 52°58' E 004°47'0 0.0
2016-Dec-04 08:33N 52°58' E 004°47'0 0.0
2016-Dec-04 07:33N 52°58' E 004°47'1 1.3
2016-Dec-04 06:33N 52°59' E 004°47'1110.9
2016-Dec-04 05:33N 52°52' E 004°33'1111.4
2016-Dec-04 04:33N 52°46' E 004°17'10 8.9
2016-Dec-04 03:28N 52°45' E 004°01'29 9.6
2016-Dec-04 00:27N 53°11' E 004°25'53 8.4
2016-Dec-03 18:13N 53°42' E 005°36'710.3
2016-Dec-03 17:32N 53°44' E 005°47'6110.2
2016-Dec-03 11:30N 53°60' E 007°28'9 9.0
2016-Dec-03 10:33N 54°02' E 007°42'9 8.9
2016-Dec-03 09:33N 54°02' E 007°57'9 9.1
2016-Dec-03 08:33N 54°01' E 008°13'9 9.4
2016-Dec-03 07:33N 53°59' E 008°28'1111.0
2016-Dec-03 06:33N 53°53' E 008°43'1110.8
2016-Dec-03 05:33N 53°52' E 009°02'5 4.6
2016-Dec-03 04:33N 53°54' E 009°09'5 4.8
2016-Dec-03 03:34N 53°57' E 009°14'8 8.1
2016-Dec-03 02:33N 54°05' E 009°19'28 7.1
2016-Dec-02 22:32N 54°21' E 009°59'5 5.0
2016-Dec-02 21:33N 54°22' E 010°08'3 3.1
2016-Dec-02 20:33N 54°24' E 010°12'9 9.3
2016-Dec-02 19:33N 54°33' E 010°14'29 0.9
2016-Dec-01 10:21N 55°02' E 010°19'8 9.6
2016-Dec-01 09:33N 55°02' E 010°32'3 0.7
2016-Dec-01 05:14N 55°04' E 010°37'0 0.0
2016-Dec-01 01:08N 55°04' E 010°37'0 0.0
2016-Dec-01 00:32N 55°04' E 010°37'0 0.0
2016-Nov-30 19:29N 55°04' E 010°37'0 0.0
2016-Nov-30 14:20N 55°04' E 010°37'0 0.0
2016-Nov-30 13:11N 55°04' E 010°37'0 0.0
2016-Nov-30 11:23N 55°04' E 010°37'0 0.0
2016-Nov-30 09:29N 55°04' E 010°37'3 2.7
2016-Nov-30 08:33N 55°02' E 010°33'25 2.1
2016-Nov-29 20:31N 55°14' E 011°12'1 1.2
2016-Nov-29 19:24N 55°15' E 011°12'1 1.7
2016-Nov-29 18:33N 55°17' E 011°11'4 4.3
2016-Nov-29 17:33N 55°12' E 011°14'4 3.7
2016-Nov-29 16:25N 55°16' E 011°12'4 4.3
2016-Nov-29 15:30N 55°13' E 011°14'4 4.1
2016-Nov-29 14:31N 55°17' E 011°12'4 4.3
2016-Nov-29 13:32N 55°13' E 011°14'9 8.7
2016-Nov-29 12:30N 55°19' E 011°02'63 7.9
2016-Nov-29 04:30N 56°11' E 012°04'1010.2
2016-Nov-29 03:34N 56°12' E 012°21'1010.0
2016-Nov-29 02:33N 56°06' E 012°35'1010.2
2016-Nov-29 01:33N 55°57' E 012°43'1110.9
2016-Nov-29 00:33N 55°46' E 012°42'10 9.9
2016-Nov-28 23:33N 55°36' E 012°42'9 9.4
2016-Nov-28 22:33N 55°26' E 012°42'1010.1
2016-Nov-28 21:33N 55°16' E 012°40'1110.9
2016-Nov-28 20:32N 55°05' E 012°41'1111.3
2016-Nov-28 19:31N 54°54' E 012°43'1310.1
2016-Nov-28 18:16N 54°42' E 012°36'811.8
2016-Nov-28 17:33N 54°37' E 012°24'1611.1
2016-Nov-28 16:09N 54°24' E 012°09'712.3
2016-Nov-28 15:33N 54°24' E 011°56'1211.7
2016-Nov-28 14:33N 54°27' E 011°37'1211.9
2016-Nov-28 13:33N 54°32' E 011°19'1110.7
2016-Nov-28 12:34N 54°35' E 011°01'1211.9
2016-Nov-28 11:33N 54°33' E 010°40'19 9.5
2016-Nov-28 09:33N 54°23' E 010°12'3 2.6
2016-Nov-28 08:32N 54°22' E 010°09'0 0.0
2016-Nov-28 07:32N 54°22' E 010°09'0 0.0
2016-Nov-28 06:32N 54°22' E 010°09'0 0.0
2016-Nov-28 05:32N 54°22' E 010°09'0 0.0
2016-Nov-28 04:32N 54°22' E 010°09'0 0.0
2016-Nov-28 03:32N 54°22' E 010°09'0 0.0
2016-Nov-28 02:32N 54°22' E 010°09'0 0.0
2016-Nov-28 01:32N 54°22' E 010°09'0 0.0
2016-Nov-28 00:32N 54°22' E 010°09'0 0.0
2016-Nov-27 23:32N 54°22' E 010°09'0 0.0
2016-Nov-27 22:32N 54°22' E 010°09'0 0.0
2016-Nov-27 21:32N 54°22' E 010°09'0 0.0
2016-Nov-27 20:32N 54°22' E 010°09'0 0.0
2016-Nov-27 19:32N 54°22' E 010°09'0 0.0
2016-Nov-27 18:32N 54°22' E 010°09'0 0.0
2016-Nov-27 17:32N 54°22' E 010°09'0 0.0
2016-Nov-27 16:32N 54°22' E 010°09'0 0.0
2016-Nov-27 15:32N 54°22' E 010°09'0 0.0
2016-Nov-27 14:32N 54°22' E 010°09'0 0.0
2016-Nov-27 13:32N 54°22' E 010°09'0 0.0
2016-Nov-27 12:32N 54°22' E 010°09'0 0.0
2016-Nov-27 11:32N 54°22' E 010°09'0 0.0
2016-Nov-27 10:32N 54°22' E 010°09'0 0.0
2016-Nov-27 09:32N 54°22' E 010°09'0 0.0
2016-Nov-27 08:32N 54°22' E 010°09'0 0.1
2016-Nov-27 07:32N 54°22' E 010°09'0 0.0
2016-Nov-27 06:32N 54°22' E 010°09'0 0.0
2016-Nov-27 05:32N 54°22' E 010°09'0 0.0
2016-Nov-27 04:32N 54°22' E 010°09'0 0.0
2016-Nov-27 03:32N 54°22' E 010°09'0 0.0
2016-Nov-27 02:32N 54°22' E 010°09'0 0.0
2016-Nov-27 01:32N 54°22' E 010°09'0 0.0
2016-Nov-27 00:32N 54°22' E 010°09'0 0.0
2016-Nov-26 23:32N 54°22' E 010°09'0 0.0
2016-Nov-26 22:32N 54°22' E 010°09'0 0.0
2016-Nov-26 21:32N 54°22' E 010°09'0 0.0
2016-Nov-26 20:32N 54°22' E 010°09'0 0.0
2016-Nov-26 19:32N 54°22' E 010°09'2 2.3
2016-Nov-26 18:33N 54°23' E 010°12'10 9.9
2016-Nov-26 17:33N 54°33' E 010°15'14 9.5
2016-Nov-26 16:05N 54°47' E 010°09'611.9
2016-Nov-26 15:33N 54°53' E 010°08'15 7.3
2016-Nov-26 13:27N 55°01' E 010°30'0 0.2
2016-Nov-26 12:06N 55°01' E 010°30'3 1.0
2016-Nov-26 09:33N 55°02' E 010°34'3 3.4
2016-Nov-26 08:33N 55°02' E 010°40'3 2.6
2016-Nov-26 07:33N 55°03' E 010°36'6 5.9
2016-Nov-26 06:34N 55°02' E 010°46'7 6.8
2016-Nov-26 05:32N 55°09' E 010°51'9 8.9
2016-Nov-26 04:33N 55°17' E 010°55'30 2.4
2016-Nov-25 16:09N 55°01' E 010°11'4 4.8
2016-Nov-25 15:23N 55°04' E 010°07'3 1.8
2016-Nov-25 13:25N 55°03' E 010°13'4 2.3
2016-Nov-25 11:26N 54°59' E 010°10'  

Dump ship's entire track history